Time,TemperatureF,DewpointF,PressureIn,WindDirection,WindDirectionDegrees,WindSpeedMPH,WindSpeedGustMPH,Humidity,HourlyPrecipIn,Conditions,Clouds,dailyrainin,SolarRadiationWatts/m^2,SoftwareType,DateUTC
2013-05-02 00:01:00,67.6,30.5,30.21,SSE,166,6.9,10.4,25,0.00,FEW,BKN,0.00,0.0,WeatherDisplay:10.37,2013-05-02 04:01:00,
2013-05-02 00:06:00,67.3,30.2,30.21,SSE,156,5.6,11.5,25,0.00,FEW,BKN,0.00,0.0,WeatherDisplay:10.37,2013-05-02 04:06:00,
2013-05-02 00:11:00,67.3,31.2,30.22,SSE,163,5.3,8.1,26,0.00,FEW,BKN,0.00,0.0,WeatherDisplay:10.37,2013-05-02 04:11:00,
2013-05-02 00:16:00,66.9,30.9,30.21,SE,138,7.2,10.4,26,0.00,FEW,BKN,0.00,0.0,WeatherDisplay:10.37,2013-05-02 04:16:00,
2013-05-02 00:21:00,67.1,32.0,30.21,SE,141,3.4,6.9,27,0.00,FEW,BKN,0.00,0.0,WeatherDisplay:10.37,2013-05-02 04:21:00,
2013-05-02 00:26:00,66.7,31.7,30.21,SSE,154,3.7,5.8,27,0.00,FEW,BKN,0.00,0.0,WeatherDisplay:10.37,2013-05-02 04:26:00,
2013-05-02 00:31:00,66.6,31.5,30.21,SSE,153,3.9,9.2,27,0.00,FEW,BKN,0.00,0.0,WeatherDisplay:10.37,2013-05-02 04:31:00,
2013-05-02 00:36:00,66.6,31.5,30.21,SSE,152,6.6,11.5,27,0.00,FEW,BKN,0.00,0.0,WeatherDisplay:10.37,2013-05-02 04:36:00,
2013-05-02 00:41:00,66.6,31.5,30.21,SSE,160,3.5,6.9,27,0.00,FEW,BKN,0.00,0.0,WeatherDisplay:10.37,2013-05-02 04:41:00,
2013-05-02 00:46:00,66.4,32.3,30.21,SSE,163,3.9,6.9,28,0.00,FEW,BKN,0.00,0.0,WeatherDisplay:10.37,2013-05-02 04:46:00,
2013-05-02 00:51:00,66.4,32.3,30.21,South,171,4.3,9.2,28,0.00,FEW,BKN,0.00,0.0,WeatherDisplay:10.37,2013-05-02 04:51:00,
2013-05-02 00:56:00,66.0,32.0,30.21,SSE,154,4.9,8.1,28,0.00,FEW,BKN,0.00,0.0,WeatherDisplay:10.37,2013-05-02 04:56:00,
2013-05-02 01:01:00,66.0,32.0,30.21,SSE,152,3.9,6.9,28,0.00,FEW,BKN,0.00,0.0,WeatherDisplay:10.37,2013-05-02 05:01:00,
2013-05-02 01:06:00,66.0,32.0,30.20,SSE,148,6.1,10.4,28,0.00,FEW,BKN,0.00,0.0,WeatherDisplay:10.37,2013-05-02 05:06:00,
2013-05-02 01:11:00,66.0,32.0,30.21,ESE,114,5.4,9.2,28,0.00,FEW,BKN,0.00,0.0,WeatherDisplay:10.37,2013-05-02 05:11:00,
2013-05-02 01:16:00,66.0,32.8,30.21,SSE,160,3.5,6.9,29,0.00,FEW,BKN,0.00,0.0,WeatherDisplay:10.37,2013-05-02 05:16:00,
2013-05-02 01:21:00,65.8,31.8,30.21,SE,124,5.7,9.2,28,0.00,FEW,BKN,0.00,0.0,WeatherDisplay:10.37,2013-05-02 05:21:00,
2013-05-02 01:26:00,65.7,31.6,30.21,SE,128,6.5,9.2,28,0.00,FEW,BKN,0.00,0.0,WeatherDisplay:10.37,2013-05-02 05:26:00,
2013-05-02 01:31:00,65.5,31.5,30.21,SSE,160,4.6,6.9,28,0.00,FEW,BKN,0.00,0.0,WeatherDisplay:10.37,2013-05-02 05:31:00,
2013-05-02 01:36:00,65.5,31.5,30.21,South,176,3.8,5.8,28,0.00,FEW,BKN,0.00,0.0,WeatherDisplay:10.37,2013-05-02 05:36:00,
2013-05-02 01:41:00,65.5,31.5,30.21,South,172,4.2,6.9,28,0.00,FEW,BKN,0.00,0.0,WeatherDisplay:10.37,2013-05-02 05:41:00,
2013-05-02 01:46:00,65.3,31.3,30.21,SSE,158,5.2,8.1,28,0.00,FEW,BKN,0.00,0.0,WeatherDisplay:10.37,2013-05-02 05:46:00,
2013-05-02 01:51:00,65.3,31.3,30.21,SSE,148,4.2,8.1,28,0.00,FEW,BKN,0.00,0.0,WeatherDisplay:10.37,2013-05-02 05:51:00,
2013-05-02 01:56:00,65.1,32.0,30.21,SSE,158,2.4,5.8,29,0.00,FEW,BKN,0.00,0.0,WeatherDisplay:10.37,2013-05-02 05:56:00,
2013-05-02 02:01:00,65.1,31.2,30.21,SE,146,4.7,8.1,28,0.00,FEW,BKN,0.00,0.0,WeatherDisplay:10.37,2013-05-02 06:01:00,
2013-05-02 02:06:00,65.1,32.0,30.21,SSE,153,4.0,8.1,29,0.00,FEW,BKN,0.00,0.0,WeatherDisplay:10.37,2013-05-02 06:06:00,
2013-05-02 02:11:00,65.1,31.2,30.21,SE,125,4.7,6.9,28,0.00,FEW,BKN,0.00,0.0,WeatherDisplay:10.37,2013-05-02 06:11:00,
2013-05-02 02:16:00,64.8,31.7,30.21,SE,143,4.5,8.1,29,0.00,FEW,BKN,0.00,0.0,WeatherDisplay:10.37,2013-05-02 06:16:00,
2013-05-02 02:21:00,64.6,31.6,30.21,SSW,195,3.8,6.9,29,0.00,FEW,BKN,0.00,0.0,WeatherDisplay:10.37,2013-05-02 06:21:00,
2013-05-02 02:26:00,64.2,32.1,30.21,SE,144,4.3,6.9,30,0.00,FEW,BKN,0.00,0.0,WeatherDisplay:10.37,2013-05-02 06:26:00,
2013-05-02 02:31:00,64.0,32.0,30.21,SE,128,3.9,6.9,30,0.00,FEW,BKN,0.00,0.0,WeatherDisplay:10.37,2013-05-02 06:31:00,
2013-05-02 02:36:00,63.7,32.5,30.21,South,169,3.2,6.9,31,0.00,FEW,BKN,0.00,0.0,WeatherDisplay:10.37,2013-05-02 06:36:00,
2013-05-02 02:41:00,63.5,32.3,30.20,SE,146,2.9,6.9,31,0.00,FEW,BKN,0.00,0.0,WeatherDisplay:10.37,2013-05-02 06:41:00,
2013-05-02 02:46:00,63.1,32.0,30.20,SE,134,2.7,4.6,31,0.00,FEW,BKN,0.00,0.0,WeatherDisplay:10.37,2013-05-02 06:46:00,
2013-05-02 02:51:00,63.1,32.8,30.20,SSE,164,1.5,2.3,32,0.00,FEW,BKN,0.00,0.0,WeatherDisplay:10.37,2013-05-02 06:51:00,
2013-05-02 02:56:00,63.0,32.6,30.20,South,181,1.8,4.6,32,0.00,FEW,BKN,0.00,0.0,WeatherDisplay:10.37,2013-05-02 06:56:00,
2013-05-02 03:01:00,62.8,31.7,30.20,ESE,120,2.5,4.6,31,0.00,CLR,BKN,0.00,0.0,WeatherDisplay:10.37,2013-05-02 07:01:00,
2013-05-02 03:06:00,62.8,32.5,30.20,SSW,193,2.3,4.0,32,0.00,CLR,BKN,0.00,0.0,WeatherDisplay:10.37,2013-05-02 07:06:00,
2013-05-02 03:11:00,62.4,32.1,30.21,South,185,1.6,3.5,32,0.00,CLR,BKN,0.00,0.0,WeatherDisplay:10.37,2013-05-02 07:11:00,
2013-05-02 03:16:00,62.4,32.1,30.21,SSW,202,2.9,5.8,32,0.00,CLR,BKN,0.00,0.0,WeatherDisplay:10.37,2013-05-02 07:16:00,
2013-05-02 03:21:00,62.4,32.1,30.21,South,179,1.6,4.0,32,0.00,CLR,BKN,0.00,0.0,WeatherDisplay:10.37,2013-05-02 07:21:00,
2013-05-02 03:26:00,62.2,32.8,30.21,South,190,1.5,3.5,33,0.00,CLR,BKN,0.00,0.0,WeatherDisplay:10.37,2013-05-02 07:26:00,
2013-05-02 03:31:00,62.1,32.6,30.21,South,180,1.5,3.5,33,0.00,CLR,BKN,0.00,0.0,WeatherDisplay:10.37,2013-05-02 07:31:00,
2013-05-02 03:36:00,62.1,32.6,30.21,South,170,1.2,2.3,33,0.00,CLR,BKN,0.00,0.0,WeatherDisplay:10.37,2013-05-02 07:36:00,
2013-05-02 03:41:00,61.9,32.4,30.21,South,177,1.8,3.5,33,0.00,CLR,BKN,0.00,0.0,WeatherDisplay:10.37,2013-05-02 07:41:00,
2013-05-02 03:46:00,61.9,32.4,30.21,South,181,1.5,3.5,33,0.00,CLR,BKN,0.00,0.0,WeatherDisplay:10.37,2013-05-02 07:46:00,
2013-05-02 03:51:00,61.9,31.7,30.21,South,176,2.5,4.6,32,0.00,CLR,BKN,0.00,0.0,WeatherDisplay:10.37,2013-05-02 07:51:00,
2013-05-02 03:56:00,61.9,32.4,30.21,South,180,1.7,3.5,33,0.00,CLR,BKN,0.00,0.0,WeatherDisplay:10.37,2013-05-02 07:56:00,
2013-05-02 04:01:00,61.9,32.4,30.21,SSE,163,1.3,3.5,33,0.00,CLR,BKN,0.00,0.0,WeatherDisplay:10.37,2013-05-02 08:01:00,
2013-05-02 04:06:00,61.5,32.9,30.22,SSE,151,0.8,1.1,34,0.00,CLR,BKN,0.00,0.0,WeatherDisplay:10.37,2013-05-02 08:06:00,
2013-05-02 04:11:00,61.3,32.0,30.21,SSE,164,1.3,2.3,33,0.00,CLR,BKN,0.00,0.0,WeatherDisplay:10.37,2013-05-02 08:11:00,
2013-05-02 04:16:00,61.3,32.0,30.22,SSE,168,1.6,3.5,33,0.00,CLR,BKN,0.00,0.0,WeatherDisplay:10.37,2013-05-02 08:16:00,
2013-05-02 04:21:00,61.2,31.8,30.22,SE,146,4.2,5.8,33,0.00,CLR,BKN,0.00,0.0,WeatherDisplay:10.37,2013-05-02 08:21:00,
2013-05-02 04:26:00,61.5,32.1,30.22,SE,146,3.9,6.9,33,0.00,CLR,BKN,0.00,0.0,WeatherDisplay:10.37,2013-05-02 08:26:00,
2013-05-02 04:31:00,61.5,32.1,30.22,SE,142,4.4,6.9,33,0.00,CLR,BKN,0.00,0.0,WeatherDisplay:10.37,2013-05-02 08:31:00,
2013-05-02 04:36:00,61.3,32.0,30.22,SE,138,3.3,5.8,33,0.00,CLR,BKN,0.00,0.0,WeatherDisplay:10.37,2013-05-02 08:36:00,
2013-05-02 04:41:00,61.2,32.5,30.23,South,170,4.0,6.9,34,0.00,CLR,BKN,0.00,0.0,WeatherDisplay:10.37,2013-05-02 08:41:00,
2013-05-02 04:46:00,61.2,32.5,30.23,SSE,168,2.8,6.9,34,0.00,CLR,BKN,0.00,0.0,WeatherDisplay:10.37,2013-05-02 08:46:00,
2013-05-02 04:51:00,60.8,33.0,30.23,SSE,164,2.2,3.5,35,0.00,CLR,BKN,0.00,0.0,WeatherDisplay:10.37,2013-05-02 08:51:00,
2013-05-02 04:56:00,60.8,33.0,30.23,SSE,158,1.5,2.3,35,0.00,CLR,BKN,0.00,0.0,WeatherDisplay:10.37,2013-05-02 08:56:00,
2013-05-02 05:01:00,60.4,32.6,30.23,South,171,1.8,3.5,35,0.00,CLR,BKN,0.00,0.0,WeatherDisplay:10.37,2013-05-02 09:01:00,
2013-05-02 05:06:00,60.1,33.0,30.23,South,174,1.2,2.8,36,0.00,CLR,BKN,0.00,0.0,WeatherDisplay:10.37,2013-05-02 09:06:00,
2013-05-02 05:11:00,59.9,33.5,30.23,SSE,163,0.6,1.1,37,0.00,CLR,BKN,0.00,0.0,WeatherDisplay:10.37,2013-05-02 09:11:00,
2013-05-02 05:16:00,59.5,33.2,30.24,SSE,164,1.7,3.5,37,0.00,CLR,BKN,0.00,0.0,WeatherDisplay:10.37,2013-05-02 09:16:00,
2013-05-02 05:21:00,59.5,33.2,30.24,SSW,197,2.2,4.6,37,0.00,CLR,BKN,0.00,0.0,WeatherDisplay:10.37,2013-05-02 09:21:00,
2013-05-02 05:26:00,59.5,33.9,30.24,SSE,158,1.4,3.5,38,0.00,CLR,BKN,0.00,0.0,WeatherDisplay:10.37,2013-05-02 09:26:00,
2013-05-02 05:31:00,59.5,33.2,30.24,SSE,147,3.0,4.6,37,0.00,CLR,BKN,0.00,0.0,WeatherDisplay:10.37,2013-05-02 09:31:00,
2013-05-02 05:36:00,59.5,33.2,30.24,SE,145,2.6,4.6,37,0.00,CLR,BKN,0.00,0.0,WeatherDisplay:10.37,2013-05-02 09:36:00,
2013-05-02 05:41:00,59.4,33.1,30.24,SE,127,3.1,5.8,37,0.00,CLR,BKN,0.00,0.0,WeatherDisplay:10.37,2013-05-02 09:41:00,
2013-05-02 05:46:00,59.4,33.1,30.24,SE,141,4.4,6.9,37,0.00,CLR,BKN,0.00,0.0,WeatherDisplay:10.37,2013-05-02 09:46:00,
2013-05-02 05:51:00,59.2,33.6,30.24,SE,132,3.8,6.9,38,0.00,CLR,BKN,0.00,0.0,WeatherDisplay:10.37,2013-05-02 09:51:00,
2013-05-02 05:56:00,58.8,33.2,30.24,SE,138,5.7,8.1,38,0.00,CLR,BKN,0.00,0.0,WeatherDisplay:10.37,2013-05-02 09:56:00,
2013-05-02 06:01:00,58.8,33.2,30.24,ESE,115,3.5,5.8,38,0.00,CLR,BKN,0.00,0.0,WeatherDisplay:10.37,2013-05-02 10:01:00,
2013-05-02 06:06:00,58.3,33.4,30.25,ESE,107,3.6,6.9,39,0.00,CLR,BKN,0.00,0.0,WeatherDisplay:10.37,2013-05-02 10:06:00,
2013-05-02 06:11:00,58.3,34.0,30.25,SE,144,2.7,4.6,40,0.00,CLR,BKN,0.00,0.0,WeatherDisplay:10.37,2013-05-02 10:11:00,
2013-05-02 06:16:00,57.9,34.3,30.25,ESE,119,3.0,6.9,41,0.00,CLR,BKN,0.00,0.0,WeatherDisplay:10.37,2013-05-02 10:16:00,
2013-05-02 06:21:00,57.4,33.9,30.25,SE,137,3.7,5.8,41,0.00,CLR,BKN,0.00,0.0,WeatherDisplay:10.37,2013-05-02 10:21:00,
2013-05-02 06:26:00,57.4,33.9,30.25,SE,130,5.0,8.1,41,0.00,CLR,BKN,0.00,0.0,WeatherDisplay:10.37,2013-05-02 10:26:00,
2013-05-02 06:31:00,57.6,34.6,30.25,South,176,0.7,2.3,42,0.00,CLR,BKN,0.00,0.0,WeatherDisplay:10.37,2013-05-02 10:31:00,
2013-05-02 06:36:00,57.4,34.5,30.25,South,179,1.8,3.9,42,0.00,CLR,BKN,0.00,0.0,WeatherDisplay:10.37,2013-05-02 10:36:00,
2013-05-02 06:41:00,57.7,34.8,30.25,South,180,2.2,3.5,42,0.00,CLR,BKN,0.00,0.0,WeatherDisplay:10.37,2013-05-02 10:41:00,
2013-05-02 06:46:00,58.1,35.1,30.25,South,187,1.7,4.6,42,0.00,CLR,BKN,0.00,0.0,WeatherDisplay:10.37,2013-05-02 10:46:00,
2013-05-02 06:51:00,58.3,34.7,30.25,SW,216,2.5,4.6,41,0.00,CLR,BKN,0.00,0.0,WeatherDisplay:10.37,2013-05-02 10:51:00,
2013-05-02 06:56:00,58.8,35.2,30.25,SSW,202,2.2,2.3,41,0.00,CLR,BKN,0.00,0.0,WeatherDisplay:10.37,2013-05-02 10:56:00,
2013-05-02 07:01:00,59.2,35.5,30.26,South,172,0.9,3.5,41,0.00,CLR,BKN,0.00,0.0,WeatherDisplay:10.37,2013-05-02 11:01:00,
2013-05-02 07:06:00,59.4,35.0,30.26,SSE,152,0.8,2.3,40,0.00,CLR,BKN,0.00,0.0,WeatherDisplay:10.37,2013-05-02 11:06:00,
2013-05-02 07:11:00,59.7,35.3,30.26,SSE,161,0.4,2.3,40,0.00,CLR,BKN,0.00,0.4,WeatherDisplay:10.37,2013-05-02 11:11:00,
2013-05-02 07:16:00,60.1,36.3,30.27,SSW,200,0.2,1.1,41,0.00,CLR,BKN,0.00,0.5,WeatherDisplay:10.37,2013-05-02 11:16:00,
2013-05-02 07:21:00,60.1,35.7,30.27,South,184,1.0,5.8,40,0.00,CLR,BKN,0.00,3.0,WeatherDisplay:10.37,2013-05-02 11:21:00,
2013-05-02 07:26:00,60.4,36.0,30.27,South,173,0.7,2.3,40,0.00,CLR,BKN,0.00,4.5,WeatherDisplay:10.37,2013-05-02 11:26:00,
2013-05-02 07:31:00,61.0,36.5,30.27,South,174,0.5,1.1,40,0.00,CLR,BKN,0.00,5.6,WeatherDisplay:10.37,2013-05-02 11:31:00,
2013-05-02 07:36:00,61.3,36.8,30.28,South,185,0.0,1.1,40,0.00,CLR,BKN,0.00,6.0,WeatherDisplay:10.37,2013-05-02 11:36:00,
2013-05-02 07:41:00,61.7,37.1,30.28,SSW,193,0.0,0.0,40,0.00,CLR,BKN,0.00,11.6,WeatherDisplay:10.37,2013-05-02 11:41:00,
2013-05-02 07:46:00,62.1,36.8,30.28,SSW,193,0.0,0.0,39,0.00,CLR,BKN,0.00,11.3,WeatherDisplay:10.37,2013-05-02 11:46:00,
2013-05-02 07:51:00,62.2,38.2,30.28,NW,317,0.0,1.1,41,0.00,CLR,BKN,0.00,22.0,WeatherDisplay:10.37,2013-05-02 11:51:00,
2013-05-02 07:56:00,62.6,37.3,30.28,South,189,0.9,2.3,39,0.00,CLR,BKN,0.00,30.1,WeatherDisplay:10.37,2013-05-02 11:56:00,
2013-05-02 08:01:00,62.8,37.4,30.29,SSW,195,0.7,1.1,39,0.00,FEW,BKN,0.00,25.3,WeatherDisplay:10.37,2013-05-02 12:01:00,
2013-05-02 08:06:00,62.8,36.8,30.29,SSW,205,1.2,2.3,38,0.00,FEW,BKN,0.00,37.8,WeatherDisplay:10.37,2013-05-02 12:06:00,
2013-05-02 08:11:00,63.3,35.9,30.29,SE,137,1.0,2.4,36,0.00,FEW,BKN,0.00,50.6,WeatherDisplay:10.37,2013-05-02 12:11:00,
2013-05-02 08:16:00,63.9,36.4,30.29,South,176,0.0,1.1,36,0.00,FEW,BKN,0.00,59.2,WeatherDisplay:10.37,2013-05-02 12:16:00,
2013-05-02 08:21:00,64.4,36.8,30.29,SSW,200,1.3,2.3,36,0.00,FEW,BKN,0.00,57.6,WeatherDisplay:10.37,2013-05-02 12:21:00,
2013-05-02 08:26:00,64.6,37.7,30.29,South,189,0.7,3.2,37,0.00,FEW,BKN,0.00,72.8,WeatherDisplay:10.37,2013-05-02 12:26:00,
2013-05-02 08:31:00,64.9,38.0,30.29,South,187,0.0,0.0,37,0.00,FEW,BKN,0.00,116.8,WeatherDisplay:10.37,2013-05-02 12:31:00,
2013-05-02 08:36:00,65.5,39.2,30.29,West,259,0.2,1.1,38,0.00,FEW,BKN,0.00,120.7,WeatherDisplay:10.37,2013-05-02 12:36:00,
2013-05-02 08:41:00,65.5,37.1,30.29,West,281,0.0,1.1,35,0.00,FEW,BKN,0.00,154.6,WeatherDisplay:10.37,2013-05-02 12:41:00,
2013-05-02 08:46:00,66.4,37.9,30.29,NNW,339,0.0,0.0,35,0.00,FEW,BKN,0.00,195.9,WeatherDisplay:10.37,2013-05-02 12:46:00,
2013-05-02 08:51:00,67.1,37.8,30.29,SE,127,3.2,5.8,34,0.00,FEW,BKN,0.00,221.8,WeatherDisplay:10.37,2013-05-02 12:51:00,
2013-05-02 08:56:00,67.5,37.3,30.29,South,178,0.7,1.1,33,0.00,FEW,BKN,0.00,246.3,WeatherDisplay:10.37,2013-05-02 12:56:00,
2013-05-02 09:01:00,67.8,36.9,30.29,ESE,120,0.7,3.5,32,0.00,FEW,BKN,0.00,270.5,WeatherDisplay:10.37,2013-05-02 13:01:00,
2013-05-02 09:06:00,68.2,37.2,30.29,SSE,152,3.5,5.8,32,0.00,FEW,BKN,0.00,298.5,WeatherDisplay:10.37,2013-05-02 13:06:00,
2013-05-02 09:11:00,68.4,35.7,30.29,SE,137,3.1,5.8,30,0.00,FEW,BKN,0.00,326.7,WeatherDisplay:10.37,2013-05-02 13:11:00,
2013-05-02 09:16:00,68.2,36.4,30.29,ESE,120,3.6,6.9,31,0.00,FEW,BKN,0.00,356.9,WeatherDisplay:10.37,2013-05-02 13:16:00,
2013-05-02 09:21:00,68.4,37.3,30.29,SSE,148,3.1,7.2,32,0.00,FEW,BKN,0.00,388.1,WeatherDisplay:10.37,2013-05-02 13:21:00,
2013-05-02 09:26:00,68.5,37.5,30.29,South,176,3.1,6.9,32,0.00,FEW,BKN,0.00,419.8,WeatherDisplay:10.37,2013-05-02 13:26:00,
2013-05-02 09:31:00,68.4,37.3,30.29,SSE,167,4.0,8.1,32,0.00,FEW,BKN,0.00,451.4,WeatherDisplay:10.37,2013-05-02 13:31:00,
2013-05-02 09:36:00,68.2,36.4,30.29,South,169,4.2,8.1,31,0.00,FEW,BKN,0.00,489.7,WeatherDisplay:10.37,2013-05-02 13:36:00,
2013-05-02 09:41:00,68.7,36.8,30.29,SSW,200,2.0,5.8,31,0.00,FEW,BKN,0.00,524.3,WeatherDisplay:10.37,2013-05-02 13:41:00,
2013-05-02 09:46:00,69.1,38.0,30.29,SE,138,5.7,9.2,32,0.00,FEW,BKN,0.00,560.4,WeatherDisplay:10.37,2013-05-02 13:46:00,
2013-05-02 09:51:00,69.1,38.0,30.29,SSE,159,2.9,6.9,32,0.00,FEW,BKN,0.00,599.7,WeatherDisplay:10.37,2013-05-02 13:51:00,
2013-05-02 09:56:00,69.3,37.3,30.29,SE,135,6.8,9.4,31,0.00,FEW,BKN,0.00,638.8,WeatherDisplay:10.37,2013-05-02 13:56:00,
2013-05-02 10:01:00,69.4,37.5,30.29,SW,219,7.9,10.4,31,0.00,FEW,BKN,0.00,677.5,WeatherDisplay:10.37,2013-05-02 14:01:00,
2013-05-02 10:06:00,69.3,36.5,30.29,ESE,113,8.1,11.5,30,0.00,FEW,BKN,0.00,717.5,WeatherDisplay:10.37,2013-05-02 14:06:00,
2013-05-02 10:11:00,69.3,37.3,30.29,SSE,152,6.9,12.7,31,0.00,FEW,BKN,0.00,759.0,WeatherDisplay:10.37,2013-05-02 14:11:00,
2013-05-02 10:16:00,69.1,37.2,30.29,South,169,7.8,11.5,31,0.00,FEW,BKN,0.00,799.8,WeatherDisplay:10.37,2013-05-02 14:16:00,
2013-05-02 10:21:00,69.6,37.6,30.29,East,96,7.5,9.2,31,0.00,FEW,BKN,0.00,846.4,WeatherDisplay:10.37,2013-05-02 14:21:00,
2013-05-02 10:26:00,70.2,38.1,30.30,SSE,147,4.6,6.9,31,0.00,FEW,BKN,0.00,890.0,WeatherDisplay:10.37,2013-05-02 14:26:00,
2013-05-02 10:31:00,70.3,36.6,30.30,SE,142,5.0,8.1,29,0.00,FEW,BKN,0.00,934.9,WeatherDisplay:10.37,2013-05-02 14:31:00,
2013-05-02 10:36:00,70.3,36.6,30.30,SE,131,7.4,11.5,29,0.00,FEW,BKN,0.00,978.9,WeatherDisplay:10.37,2013-05-02 14:36:00,
2013-05-02 10:41:00,70.5,36.7,30.29,SE,146,4.0,9.2,29,0.00,FEW,BKN,0.00,1024.1,WeatherDisplay:10.37,2013-05-02 14:41:00,
2013-05-02 10:46:00,71.2,37.3,30.30,SSE,165,6.4,11.5,29,0.00,FEW,BKN,0.00,1066.1,WeatherDisplay:10.37,2013-05-02 14:46:00,
2013-05-02 10:51:00,71.4,37.5,30.30,SE,132,7.1,8.2,29,0.00,FEW,BKN,0.00,1116.7,WeatherDisplay:10.37,2013-05-02 14:51:00,
2013-05-02 10:56:00,71.4,36.6,30.30,SSE,148,5.7,9.2,28,0.00,FEW,BKN,0.00,1165.7,WeatherDisplay:10.37,2013-05-02 14:56:00,
2013-05-02 11:01:00,71.2,37.3,30.30,SE,125,4.8,6.9,29,0.00,FEW,BKN,0.00,1210.0,WeatherDisplay:10.37,2013-05-02 15:01:00,
2013-05-02 11:06:00,71.8,39.5,30.29,ENE,73,0.0,4.6,31,0.00,FEW,BKN,0.00,1253.7,WeatherDisplay:10.37,2013-05-02 15:06:00,
2013-05-02 11:11:00,72.3,37.4,30.29,East,90,6.7,9.2,28,0.00,FEW,BKN,0.00,1300.7,WeatherDisplay:10.37,2013-05-02 15:11:00,
2013-05-02 11:16:00,72.7,38.6,30.29,SSE,152,3.1,4.6,29,0.00,FEW,BKN,0.00,1352.4,WeatherDisplay:10.37,2013-05-02 15:16:00,
2013-05-02 11:21:00,73.6,39.4,30.29,SE,126,2.2,6.9,29,0.00,FEW,BKN,0.00,1398.0,WeatherDisplay:10.37,2013-05-02 15:21:00,
2013-05-02 11:26:00,74.1,38.0,30.29,ENE,67,3.5,8.1,27,0.00,FEW,BKN,0.00,1442.6,WeatherDisplay:10.37,2013-05-02 15:26:00,
2013-05-02 11:31:00,74.1,38.0,30.29,SE,143,4.1,6.9,27,0.00,FEW,BKN,0.00,1490.9,WeatherDisplay:10.37,2013-05-02 15:31:00,
2013-05-02 11:36:00,73.6,37.5,30.29,South,182,6.3,9.2,27,0.00,FEW,BKN,0.00,1536.2,WeatherDisplay:10.37,2013-05-02 15:36:00,
2013-05-02 11:41:00,75.7,42.1,30.29,ENE,64,2.3,5.3,30,0.00,FEW,BKN,0.00,1577.2,WeatherDisplay:10.37,2013-05-02 15:41:00,
2013-05-02 11:46:00,78.1,41.4,30.29,NNW,335,1.2,3.5,27,0.00,FEW,BKN,0.00,1629.3,WeatherDisplay:10.37,2013-05-02 15:46:00,
2013-05-02 11:51:00,77.9,38.2,30.29,SSE,153,3.4,9.2,24,0.00,FEW,BKN,0.00,1673.9,WeatherDisplay:10.37,2013-05-02 15:51:00,
2013-05-02 11:56:00,76.3,38.9,30.29,South,177,2.5,8.2,26,0.00,FEW,BKN,0.00,1709.4,WeatherDisplay:10.37,2013-05-02 15:56:00,
2013-05-02 12:01:00,77.5,43.6,30.29,SW,224,0.2,4.6,30,0.00,SCT,BKN,0.00,1749.8,WeatherDisplay:10.37,2013-05-02 16:01:00,
2013-05-02 12:06:00,77.9,39.2,30.29,SE,139,2.7,5.8,25,0.00,SCT,BKN,0.00,1793.1,WeatherDisplay:10.37,2013-05-02 16:06:00,
2013-05-02 12:11:00,79.3,42.4,30.28,South,179,2.2,5.8,27,0.00,SCT,BKN,0.00,1843.0,WeatherDisplay:10.37,2013-05-02 16:11:00,
2013-05-02 12:16:00,79.3,39.4,30.28,ENE,60,5.6,8.1,24,0.00,SCT,BKN,0.00,1865.1,WeatherDisplay:10.37,2013-05-02 16:16:00,
2013-05-02 12:21:00,79.3,39.4,30.28,SSE,158,6.2,10.4,24,0.00,SCT,BKN,0.00,1920.1,WeatherDisplay:10.37,2013-05-02 16:21:00,
2013-05-02 12:26:00,78.3,38.5,30.28,SSE,163,1.9,5.8,24,0.00,SCT,BKN,0.00,1951.5,WeatherDisplay:10.37,2013-05-02 16:26:00,
2013-05-02 12:31:00,78.8,41.0,30.28,ENE,71,3.0,7.2,26,0.00,SCT,BKN,0.00,1975.7,WeatherDisplay:10.37,2013-05-02 16:31:00,
2013-05-02 12:36:00,79.7,44.6,30.28,ENE,59,2.6,4.6,29,0.00,SCT,BKN,0.00,2003.9,WeatherDisplay:10.37,2013-05-02 16:36:00,
2013-05-02 12:41:00,79.2,39.2,30.28,SE,137,4.0,6.9,24,0.00,SCT,BKN,0.00,2001.4,WeatherDisplay:10.37,2013-05-02 16:41:00,
2013-05-02 12:46:00,79.0,41.2,30.27,NE,44,1.6,4.6,26,0.00,SCT,BKN,0.00,2057.4,WeatherDisplay:10.37,2013-05-02 16:46:00,
2013-05-02 12:51:00,78.4,38.6,30.27,East,87,1.8,4.6,24,0.00,SCT,BKN,0.00,2103.8,WeatherDisplay:10.37,2013-05-02 16:51:00,
2013-05-02 12:56:00,78.4,39.7,30.26,ENE,75,0.4,3.5,25,0.00,SCT,BKN,0.00,2129.4,WeatherDisplay:10.37,2013-05-02 16:56:00,
2013-05-02 13:01:00,80.2,40.2,30.26,ENE,75,1.7,8.1,24,0.00,SCT,BKN,0.00,2143.4,WeatherDisplay:10.37,2013-05-02 17:01:00,
2013-05-02 13:06:00,80.6,39.4,30.26,North,2,2.4,9.2,23,0.00,SCT,BKN,0.00,2187.4,WeatherDisplay:10.37,2013-05-02 17:06:00,
2013-05-02 13:11:00,81.9,42.6,30.26,NE,39,2.3,8.1,25,0.00,SCT,BKN,0.00,2206.1,WeatherDisplay:10.37,2013-05-02 17:11:00,
2013-05-02 13:16:00,82.0,39.4,30.26,NNE,33,6.8,8.1,22,0.00,SCT,BKN,0.00,2216.5,WeatherDisplay:10.37,2013-05-02 17:16:00,
2013-05-02 13:21:00,81.3,36.4,30.26,South,191,3.7,6.9,20,0.00,SCT,BKN,0.00,2245.5,WeatherDisplay:10.37,2013-05-02 17:21:00,
2013-05-02 13:26:00,78.6,32.9,30.25,SSE,148,5.1,9.2,19,0.00,SCT,BKN,0.00,2269.1,WeatherDisplay:10.37,2013-05-02 17:26:00,
2013-05-02 13:31:00,78.8,33.0,30.25,ESE,109,6.0,9.3,19,0.00,SCT,BKN,0.00,2275.9,WeatherDisplay:10.37,2013-05-02 17:31:00,
2013-05-02 13:36:00,79.0,31.8,30.25,SE,135,4.1,10.4,18,0.00,SCT,BKN,0.00,2281.7,WeatherDisplay:10.37,2013-05-02 17:36:00,
2013-05-02 13:41:00,79.7,33.8,30.25,SE,140,5.5,7.5,19,0.00,SCT,BKN,0.00,2298.8,WeatherDisplay:10.37,2013-05-02 17:41:00,
2013-05-02 13:46:00,80.2,36.7,30.25,ENE,63,2.7,6.3,21,0.00,SCT,BKN,0.00,2300.8,WeatherDisplay:10.37,2013-05-02 17:46:00,
2013-05-02 13:51:00,81.1,33.6,30.25,SW,222,3.8,11.5,18,0.00,SCT,BKN,0.00,2285.4,WeatherDisplay:10.37,2013-05-02 17:51:00,
2013-05-02 13:56:00,81.7,35.4,30.25,ENE,62,2.8,6.9,19,0.00,SCT,BKN,0.00,2297.8,WeatherDisplay:10.37,2013-05-02 17:56:00,
2013-05-02 14:01:00,82.0,37.0,30.24,NE,39,2.5,4.6,20,0.00,SCT,BKN,0.00,2316.1,WeatherDisplay:10.37,2013-05-02 18:01:00,
2013-05-02 14:06:00,82.6,34.8,30.25,SSE,150,2.8,5.8,18,0.00,SCT,BKN,0.00,2311.3,WeatherDisplay:10.37,2013-05-02 18:06:00,
2013-05-02 14:11:00,81.5,32.5,30.24,SSW,199,5.2,10.4,17,0.00,SCT,BKN,0.00,2320.0,WeatherDisplay:10.37,2013-05-02 18:11:00,
2013-05-02 14:16:00,81.1,35.0,30.24,SE,139,3.5,5.8,19,0.00,SCT,BKN,0.00,2287.2,WeatherDisplay:10.37,2013-05-02 18:16:00,
2013-05-02 14:21:00,81.5,35.2,30.24,SW,221,2.2,6.9,19,0.00,SCT,BKN,0.00,2274.7,WeatherDisplay:10.37,2013-05-02 18:21:00,
2013-05-02 14:26:00,81.7,34.0,30.24,SE,143,3.0,5.8,18,0.00,SCT,BKN,0.00,2271.0,WeatherDisplay:10.37,2013-05-02 18:26:00,
2013-05-02 14:31:00,81.1,35.0,30.24,SE,124,2.6,8.1,19,0.00,SCT,BKN,0.00,2272.0,WeatherDisplay:10.37,2013-05-02 18:31:00,
2013-05-02 14:36:00,82.2,37.1,30.24,NNE,26,4.0,5.8,20,0.00,SCT,BKN,0.00,2255.9,WeatherDisplay:10.37,2013-05-02 18:36:00,
2013-05-02 14:41:00,81.3,35.1,30.24,ESE,123,4.0,8.1,19,0.00,SCT,BKN,0.00,2248.4,WeatherDisplay:10.37,2013-05-02 18:41:00,
2013-05-02 14:46:00,82.0,37.0,30.23,ENE,69,2.8,5.4,20,0.00,SCT,BKN,0.00,2211.6,WeatherDisplay:10.37,2013-05-02 18:46:00,
2013-05-02 14:51:00,82.2,35.8,30.23,SE,146,2.2,6.9,19,0.00,SCT,BKN,0.00,2196.8,WeatherDisplay:10.37,2013-05-02 18:51:00,
2013-05-02 14:56:00,80.8,31.9,30.22,SW,220,2.6,10.4,17,0.00,SCT,BKN,0.00,2173.7,WeatherDisplay:10.37,2013-05-02 18:56:00,
2013-05-02 15:01:00,80.8,36.0,30.22,NNE,31,2.3,4.6,20,0.00,SCT,BKN,0.00,2139.6,WeatherDisplay:10.37,2013-05-02 19:01:00,
2013-05-02 15:06:00,80.6,33.2,30.22,SE,132,3.5,11.7,18,0.00,SCT,BKN,0.00,2121.5,WeatherDisplay:10.37,2013-05-02 19:06:00,
2013-05-02 15:11:00,80.2,34.2,30.22,SSW,207,1.9,8.1,19,0.00,SCT,BKN,0.00,2109.0,WeatherDisplay:10.37,2013-05-02 19:11:00,
2013-05-02 15:16:00,81.3,36.4,30.22,NNE,13,2.5,6.9,20,0.00,SCT,BKN,0.00,2072.1,WeatherDisplay:10.37,2013-05-02 19:16:00,
2013-05-02 15:21:00,81.3,37.6,30.22,North,2,1.4,6.9,21,0.00,SCT,BKN,0.00,2037.4,WeatherDisplay:10.37,2013-05-02 19:21:00,
2013-05-02 15:26:00,82.0,35.7,30.21,NE,42,2.8,5.8,19,0.00,SCT,BKN,0.00,1999.7,WeatherDisplay:10.37,2013-05-02 19:26:00,
2013-05-02 15:31:00,82.0,37.0,30.21,SSE,157,3.2,5.8,20,0.00,SCT,BKN,0.00,1983.4,WeatherDisplay:10.37,2013-05-02 19:31:00,
2013-05-02 15:36:00,82.0,37.0,30.20,North,358,5.3,6.9,20,0.00,SCT,BKN,0.00,1938.6,WeatherDisplay:10.37,2013-05-02 19:36:00,
2013-05-02 15:41:00,80.1,34.1,30.21,East,96,7.4,11.5,19,0.00,SCT,BKN,0.00,1906.4,WeatherDisplay:10.37,2013-05-02 19:41:00,
2013-05-02 15:46:00,80.1,36.6,30.21,NNE,21,1.7,9.2,21,0.00,SCT,BKN,0.00,1854.4,WeatherDisplay:10.37,2013-05-02 19:46:00,
2013-05-02 15:51:00,80.6,33.2,30.20,SE,141,5.8,11.5,18,0.00,SCT,BKN,0.00,1835.6,WeatherDisplay:10.37,2013-05-02 19:51:00,
2013-05-02 15:56:00,80.8,37.2,30.20,ESE,121,2.9,6.9,21,0.00,SCT,BKN,0.00,1786.6,WeatherDisplay:10.37,2013-05-02 19:56:00,
2013-05-02 16:01:00,81.0,36.1,30.19,ENE,64,3.7,6.9,20,0.00,SCT,BKN,0.00,1737.7,WeatherDisplay:10.37,2013-05-02 20:01:00,
2013-05-02 16:06:00,80.6,37.0,30.19,NNE,17,5.3,11.5,21,0.00,SCT,BKN,0.00,1697.5,WeatherDisplay:10.37,2013-05-02 20:06:00,
2013-05-02 16:11:00,80.6,35.8,30.19,SSE,156,5.1,9.2,20,0.00,SCT,BKN,0.00,1650.3,WeatherDisplay:10.37,2013-05-02 20:11:00,
2013-05-02 16:16:00,80.8,38.4,30.19,SW,221,1.2,3.5,22,0.00,SCT,BKN,0.00,1605.5,WeatherDisplay:10.37,2013-05-02 20:16:00,
2013-05-02 16:21:00,81.1,37.5,30.19,SE,143,2.0,4.6,21,0.00,SCT,BKN,0.00,1557.0,WeatherDisplay:10.37,2013-05-02 20:21:00,
2013-05-02 16:26:00,81.1,35.0,30.19,SE,126,3.0,8.1,19,0.00,SCT,BKN,0.00,1513.9,WeatherDisplay:10.37,2013-05-02 20:26:00,
2013-05-02 16:31:00,81.7,36.7,30.19,South,173,4.1,6.9,20,0.00,SCT,BKN,0.00,1458.1,WeatherDisplay:10.37,2013-05-02 20:31:00,
2013-05-02 16:36:00,81.9,38.1,30.18,SE,135,2.7,5.8,21,0.00,SCT,BKN,0.00,1414.1,WeatherDisplay:10.37,2013-05-02 20:36:00,
2013-05-02 16:41:00,82.2,41.8,30.18,NNE,31,0.4,3.5,24,0.00,SCT,BKN,0.00,1356.8,WeatherDisplay:10.37,2013-05-02 20:41:00,
2013-05-02 16:46:00,81.7,36.7,30.18,SE,126,6.8,11.5,20,0.00,SCT,BKN,0.00,1312.2,WeatherDisplay:10.37,2013-05-02 20:46:00,
2013-05-02 16:51:00,81.9,39.3,30.18,SSE,150,2.1,4.6,22,0.00,SCT,BKN,0.00,1258.9,WeatherDisplay:10.37,2013-05-02 20:51:00,
2013-05-02 16:56:00,81.9,39.3,30.17,ESE,113,1.6,6.9,22,0.00,SCT,BKN,0.00,1207.1,WeatherDisplay:10.37,2013-05-02 20:56:00,
2013-05-02 17:01:00,81.0,37.3,30.17,East,98,3.4,5.8,21,0.00,SCT,BKN,0.00,782.9,WeatherDisplay:10.37,2013-05-02 21:01:00,
2013-05-02 17:06:00,81.1,39.8,30.17,WNW,303,2.3,6.9,23,0.00,SCT,BKN,0.00,910.5,WeatherDisplay:10.37,2013-05-02 21:06:00,
2013-05-02 17:11:00,81.1,40.9,30.17,North,0,1.9,4.6,24,0.00,SCT,BKN,0.00,773.9,WeatherDisplay:10.37,2013-05-02 21:11:00,
2013-05-02 17:16:00,80.6,38.2,30.17,North,9,3.8,8.1,22,0.00,SCT,BKN,0.00,247.5,WeatherDisplay:10.37,2013-05-02 21:16:00,
2013-05-02 17:21:00,80.2,39.1,30.17,SW,231,2.4,4.6,23,0.00,SCT,BKN,0.00,482.0,WeatherDisplay:10.37,2013-05-02 21:21:00,
2013-05-02 17:27:00,80.2,39.1,30.17,SE,126,3.8,6.9,23,0.00,SCT,BKN,0.00,382.9,WeatherDisplay:10.37,2013-05-02 21:27:00,
2013-05-02 17:32:00,80.4,40.3,30.17,NE,47,2.6,5.8,24,0.00,SCT,BKN,0.00,461.3,WeatherDisplay:10.37,2013-05-02 21:32:00,
2013-05-02 17:37:00,79.9,41.9,30.17,NNE,28,3.2,10.4,26,0.00,SCT,BKN,0.00,176.1,WeatherDisplay:10.37,2013-05-02 21:37:00,
2013-05-02 17:42:00,78.4,43.5,30.17,NNE,32,1.7,8.1,29,0.00,SCT,BKN,0.00,152.8,WeatherDisplay:10.37,2013-05-02 21:42:00,
2013-05-02 17:47:00,77.2,43.3,30.17,NE,46,5.2,6.9,30,0.00,SCT,BKN,0.00,140.0,WeatherDisplay:10.37,2013-05-02 21:47:00,
2013-05-02 17:52:00,76.5,44.4,30.17,NNE,21,4.8,5.8,32,0.00,SCT,BKN,0.00,140.7,WeatherDisplay:10.37,2013-05-02 21:52:00,
2013-05-02 17:57:00,75.9,43.9,30.17,NNE,25,3.8,6.9,32,0.00,SCT,BKN,0.00,140.9,WeatherDisplay:10.37,2013-05-02 21:57:00,
2013-05-02 18:02:00,75.4,43.5,30.17,NE,52,6.2,10.4,32,0.00,SCT,BKN,0.00,125.5,WeatherDisplay:10.37,2013-05-02 22:02:00,
2013-05-02 18:07:00,75.0,43.1,30.17,NNE,30,4.6,11.5,32,0.00,SCT,BKN,0.00,109.9,WeatherDisplay:10.37,2013-05-02 22:07:00,
2013-05-02 18:12:00,75.0,44.0,30.17,North,2,5.8,8.1,33,0.00,SCT,BKN,0.00,110.0,WeatherDisplay:10.37,2013-05-02 22:12:00,
2013-05-02 18:17:00,74.7,42.8,30.17,NNE,27,4.9,8.1,32,0.00,SCT,BKN,0.00,106.7,WeatherDisplay:10.37,2013-05-02 22:17:00,
2013-05-02 18:22:00,74.5,43.5,30.17,NNE,23,4.5,6.9,33,0.00,SCT,BKN,0.00,86.9,WeatherDisplay:10.37,2013-05-02 22:22:00,
2013-05-02 18:27:00,74.5,44.3,30.17,NE,44,3.7,5.8,34,0.00,SCT,BKN,0.00,91.4,WeatherDisplay:10.37,2013-05-02 22:27:00,
2013-05-02 18:32:00,74.1,44.7,30.17,NNE,28,4.7,6.1,35,0.00,SCT,BKN,0.00,73.6,WeatherDisplay:10.37,2013-05-02 22:32:00,
2013-05-02 18:37:00,73.6,44.2,30.16,NNE,29,4.0,4.6,35,0.00,SCT,BKN,0.00,103.7,WeatherDisplay:10.37,2013-05-02 22:37:00,
2013-05-02 18:42:00,73.4,44.1,30.17,NNE,18,3.6,6.9,35,0.00,SCT,BKN,0.00,67.7,WeatherDisplay:10.37,2013-05-02 22:42:00,
2013-05-02 18:47:00,73.2,43.2,30.16,NNE,26,4.3,8.1,34,0.00,SCT,BKN,0.00,60.0,WeatherDisplay:10.37,2013-05-02 22:47:00,
2013-05-02 18:52:00,72.9,42.8,30.16,NNE,29,2.6,9.2,34,0.00,SCT,BKN,0.00,66.4,WeatherDisplay:10.37,2013-05-02 22:52:00,
2013-05-02 18:57:00,72.7,43.4,30.16,NNE,26,3.5,8.1,35,0.00,SCT,BKN,0.00,53.8,WeatherDisplay:10.37,2013-05-02 22:57:00,
2013-05-02 19:02:00,72.5,43.3,30.16,NE,43,3.6,5.8,35,0.00,SCT,BKN,0.00,44.9,WeatherDisplay:10.37,2013-05-02 23:02:00,
2013-05-02 19:07:00,72.1,43.0,30.16,NNE,24,4.8,8.1,35,0.00,SCT,BKN,0.00,78.9,WeatherDisplay:10.37,2013-05-02 23:07:00,
2013-05-02 19:12:00,72.1,43.7,30.16,NE,44,2.6,4.6,36,0.00,SCT,BKN,0.00,62.9,WeatherDisplay:10.37,2013-05-02 23:12:00,
2013-05-02 19:17:00,72.1,44.4,30.16,NE,56,2.6,3.1,37,0.00,SCT,BKN,0.00,31.8,WeatherDisplay:10.37,2013-05-02 23:17:00,
2013-05-02 19:22:00,71.8,44.1,30.16,NNE,30,1.3,2.3,37,0.00,SCT,BKN,0.00,51.6,WeatherDisplay:10.37,2013-05-02 23:22:00,
2013-05-02 19:27:00,72.0,44.3,30.16,NNE,14,0.3,3.5,37,0.00,SCT,BKN,0.00,34.6,WeatherDisplay:10.37,2013-05-02 23:27:00,
2013-05-02 19:32:00,72.0,43.5,30.16,NE,36,3.1,5.8,36,0.00,SCT,BKN,0.00,26.1,WeatherDisplay:10.37,2013-05-02 23:32:00,
2013-05-02 19:37:00,71.8,44.8,30.15,NE,44,1.4,2.3,38,0.00,SCT,BKN,0.00,20.4,WeatherDisplay:10.37,2013-05-02 23:37:00,
2013-05-02 19:42:00,71.4,44.5,30.15,NE,40,1.5,3.5,38,0.00,SCT,BKN,0.00,12.0,WeatherDisplay:10.37,2013-05-02 23:42:00,
2013-05-02 19:47:00,70.9,44.0,30.15,NNE,32,1.3,2.3,38,0.00,SCT,BKN,0.00,12.1,WeatherDisplay:10.37,2013-05-02 23:47:00,
2013-05-02 19:52:00,70.5,43.7,30.15,NE,37,1.5,2.3,38,0.00,SCT,BKN,0.00,9.1,WeatherDisplay:10.37,2013-05-02 23:52:00,
2013-05-02 19:57:00,70.3,44.2,30.15,NNE,21,0.7,3.5,39,0.00,SCT,BKN,0.00,4.5,WeatherDisplay:10.37,2013-05-02 23:57:00,
2013-05-02 20:02:00,69.8,43.7,30.16,NNE,26,1.9,2.3,39,0.00,SCT,BKN,0.00,9.2,WeatherDisplay:10.37,2013-05-03 00:02:00,
2013-05-02 20:07:00,69.4,44.1,30.15,NNE,25,0.9,3.5,40,0.00,SCT,BKN,0.00,3.5,WeatherDisplay:10.37,2013-05-03 00:07:00,
2013-05-02 20:12:00,69.1,43.7,30.15,NE,38,0.0,2.3,40,0.00,SCT,BKN,0.00,0.9,WeatherDisplay:10.37,2013-05-03 00:12:00,
2013-05-02 20:17:00,69.1,45.0,30.15,NE,37,0.0,0.0,42,0.00,SCT,BKN,0.00,0.6,WeatherDisplay:10.37,2013-05-03 00:17:00,
2013-05-02 20:22:00,69.1,43.7,30.15,NE,37,0.0,0.0,40,0.00,SCT,BKN,0.00,0.2,WeatherDisplay:10.37,2013-05-03 00:22:00,
2013-05-02 20:27:00,68.5,43.2,30.16,NE,37,0.0,0.0,40,0.00,SCT,BKN,0.00,0.0,WeatherDisplay:10.37,2013-05-03 00:27:00,
2013-05-02 20:32:00,68.2,44.2,30.16,NE,37,0.0,0.0,42,0.00,SCT,BKN,0.00,0.0,WeatherDisplay:10.37,2013-05-03 00:32:00,
2013-05-02 20:37:00,68.2,44.8,30.16,NE,37,0.0,0.0,43,0.00,SCT,BKN,0.00,0.1,WeatherDisplay:10.37,2013-05-03 00:37:00,
2013-05-02 20:42:00,67.8,43.9,30.17,NE,37,0.0,0.0,42,0.00,SCT,BKN,0.00,0.0,WeatherDisplay:10.37,2013-05-03 00:42:00,
2013-05-02 20:47:00,67.6,44.3,30.16,NE,37,0.0,0.0,43,0.00,SCT,BKN,0.00,0.0,WeatherDisplay:10.37,2013-05-03 00:47:00,
2013-05-02 20:52:00,67.3,44.6,30.17,NE,37,0.0,0.0,44,0.00,SCT,BKN,0.00,0.0,WeatherDisplay:10.37,2013-05-03 00:52:00,
2013-05-02 20:57:00,67.3,44.0,30.17,NE,35,0.0,0.0,43,0.00,SCT,BKN,0.00,0.0,WeatherDisplay:10.37,2013-05-03 00:57:00,
2013-05-02 21:02:00,66.9,43.7,30.16,NE,34,0.0,0.0,43,0.00,FEW,BKN,0.00,0.0,WeatherDisplay:10.37,2013-05-03 01:02:00,
2013-05-02 21:07:00,66.7,44.1,30.17,NE,34,0.0,0.0,44,0.00,FEW,BKN,0.00,0.0,WeatherDisplay:10.37,2013-05-03 01:07:00,
2013-05-02 21:12:00,66.4,43.2,30.17,NE,34,0.0,0.0,43,0.00,FEW,BKN,0.00,0.0,WeatherDisplay:10.37,2013-05-03 01:12:00,
2013-05-02 21:17:00,66.0,43.5,30.17,NE,34,0.0,0.0,44,0.00,FEW,BKN,0.00,0.0,WeatherDisplay:10.37,2013-05-03 01:17:00,
2013-05-02 21:22:00,65.8,43.3,30.17,NE,34,0.0,0.0,44,0.00,FEW,BKN,0.00,0.0,WeatherDisplay:10.37,2013-05-03 01:22:00,
2013-05-02 21:27:00,65.5,43.6,30.17,NE,34,0.0,0.0,45,0.00,FEW,BKN,0.00,0.0,WeatherDisplay:10.37,2013-05-03 01:27:00,
2013-05-02 21:32:00,65.1,42.7,30.17,NE,34,0.0,0.0,44,0.00,FEW,BKN,0.00,0.0,WeatherDisplay:10.37,2013-05-03 01:32:00,
2013-05-02 21:37:00,64.4,43.2,30.16,ESE,117,0.1,1.1,46,0.00,FEW,BKN,0.00,0.0,WeatherDisplay:10.37,2013-05-03 01:37:00,
2013-05-02 21:42:00,64.2,43.0,30.16,SE,131,0.1,2.3,46,0.00,FEW,BKN,0.00,0.0,WeatherDisplay:10.37,2013-05-03 01:42:00,
2013-05-02 21:47:00,64.2,43.0,30.16,SE,126,0.2,2.3,46,0.00,FEW,BKN,0.00,0.0,WeatherDisplay:10.37,2013-05-03 01:47:00,
2013-05-02 21:52:00,64.6,43.3,30.16,SE,132,1.1,2.3,46,0.00,FEW,BKN,0.00,0.0,WeatherDisplay:10.37,2013-05-03 01:52:00,
2013-05-02 21:57:00,64.6,42.7,30.16,SE,140,1.2,3.5,45,0.00,FEW,BKN,0.00,0.0,WeatherDisplay:10.37,2013-05-03 01:57:00,
2013-05-02 22:02:00,64.9,42.5,30.17,ESE,120,1.8,3.5,44,0.00,FEW,BKN,0.00,0.0,WeatherDisplay:10.37,2013-05-03 02:02:00,
2013-05-02 22:07:00,65.3,43.4,30.16,SE,124,0.0,1.1,45,0.00,FEW,BKN,0.00,0.0,WeatherDisplay:10.37,2013-05-03 02:07:00,
2013-05-02 22:12:00,65.3,42.8,30.17,SE,130,0.4,1.1,44,0.00,FEW,BKN,0.00,0.0,WeatherDisplay:10.37,2013-05-03 02:12:00,
2013-05-02 22:17:00,64.6,45.0,30.17,NNE,31,1.3,2.3,49,0.00,FEW,BKN,0.00,0.0,WeatherDisplay:10.37,2013-05-03 02:17:00,
2013-05-02 22:22:00,63.1,43.1,30.17,ENE,75,0.8,4.6,48,0.00,FEW,BKN,0.00,0.0,WeatherDisplay:10.37,2013-05-03 02:22:00,
2013-05-02 22:27:00,62.8,43.3,30.17,NE,46,0.4,1.0,49,0.00,FEW,BKN,0.00,0.0,WeatherDisplay:10.37,2013-05-03 02:27:00,
2013-05-02 22:32:00,62.6,43.2,30.16,NE,40,3.0,3.5,49,0.00,FEW,BKN,0.00,0.0,WeatherDisplay:10.37,2013-05-03 02:32:00,
2013-05-02 22:37:00,62.1,43.2,30.16,NE,52,2.5,2.9,50,0.00,FEW,BKN,0.00,0.0,WeatherDisplay:10.37,2013-05-03 02:37:00,
2013-05-02 22:42:00,62.1,43.2,30.16,NE,38,2.1,3.5,50,0.00,FEW,BKN,0.00,0.0,WeatherDisplay:10.37,2013-05-03 02:42:00,
2013-05-02 22:47:00,62.4,43.0,30.16,East,81,0.2,1.1,49,0.00,FEW,BKN,0.00,0.0,WeatherDisplay:10.37,2013-05-03 02:47:00,
2013-05-02 22:52:00,63.0,43.0,30.16,ENE,64,0.5,1.1,48,0.00,FEW,BKN,0.00,0.0,WeatherDisplay:10.37,2013-05-03 02:52:00,
2013-05-02 22:57:00,63.3,42.7,30.15,ENE,58,0.2,0.9,47,0.00,FEW,BKN,0.00,0.0,WeatherDisplay:10.37,2013-05-03 02:57:00,
2013-05-02 23:02:00,63.3,42.2,30.15,NNE,15,0.5,1.4,46,0.00,FEW,BKN,0.00,0.0,WeatherDisplay:10.37,2013-05-03 03:02:00,
2013-05-02 23:07:00,63.5,42.9,30.15,NE,44,0.0,0.0,47,0.00,FEW,BKN,0.00,0.0,WeatherDisplay:10.37,2013-05-03 03:07:00,
2013-05-02 23:12:00,63.5,42.9,30.15,NNE,27,0.0,0.0,47,0.00,FEW,BKN,0.00,0.0,WeatherDisplay:10.37,2013-05-03 03:12:00,
2013-05-02 23:17:00,63.3,42.7,30.16,NE,51,0.0,0.0,47,0.00,FEW,BKN,0.00,0.0,WeatherDisplay:10.37,2013-05-03 03:17:00,
2013-05-02 23:22:00,63.0,42.4,30.16,NE,51,0.0,0.0,47,0.00,FEW,BKN,0.00,0.0,WeatherDisplay:10.37,2013-05-03 03:22:00,
2013-05-02 23:27:00,62.8,42.2,30.16,NE,51,0.0,0.0,47,0.00,FEW,BKN,0.00,0.0,WeatherDisplay:10.37,2013-05-03 03:27:00,
2013-05-02 23:32:00,61.9,43.5,30.15,WSW,242,0.2,0.0,51,0.00,FEW,BKN,0.00,0.0,WeatherDisplay:10.37,2013-05-03 03:32:00,
2013-05-02 23:37:00,61.2,42.9,30.16,WSW,237,0.0,0.0,51,0.00,FEW,BKN,0.00,0.0,WeatherDisplay:10.37,2013-05-03 03:37:00,
2013-05-02 23:42:00,60.4,43.7,30.16,NE,41,1.0,2.3,54,0.00,FEW,BKN,0.00,0.0,WeatherDisplay:10.37,2013-05-03 03:42:00,
2013-05-02 23:47:00,59.7,42.6,30.16,NE,41,0.0,0.0,53,0.00,FEW,BKN,0.00,0.0,WeatherDisplay:10.37,2013-05-03 03:47:00,
2013-05-02 23:52:00,60.3,42.6,30.16,ESE,107,0.0,0.0,52,0.00,FEW,BKN,0.00,0.0,WeatherDisplay:10.37,2013-05-03 03:52:00,
2013-05-02 23:57:00,60.4,42.7,30.16,ESE,107,0.0,0.0,52,0.00,FEW,BKN,0.00,0.0,WeatherDisplay:10.37,2013-05-03 03:57:00,